Time;durP1;ratioP1;P1;durP2;ratioP2;P2;SDS_P1;SDS_P2;PMS_P1;PMS_P2;Temp;Humidity;BMP_temperature;BMP_pressure;BME280_temperature;BME280_humidity;BME280_pressure;Samples;Min_cycle;Max_cycle;Signal;HPM_P1;HPM_P2
2021/12/24 00:00:01;;;;;;;356.20;164.88;;;;;;;;;;5095197;28;20489;-65
2021/12/24 00:02:28;;;;;;;349.30;161.50;;;;;;;;;;5094620;28;20111;-65
2021/12/24 00:04:54;;;;;;;343.63;157.93;;;;;;;;;;5093836;28;20052;-64
2021/12/24 00:07:20;;;;;;;301.00;140.98;;;;;;;;;;5095044;28;20056;-64
2021/12/24 00:09:46;;;;;;;323.73;142.80;;;;;;;;;;5093724;28;20124;-64
2021/12/24 00:12:18;;;;;;;316.83;145.18;;;;;;;;;;5094873;28;20105;-65
2021/12/24 00:14:50;;;;;;;282.60;133.60;;;;;;;;;;5095048;28;20032;-64
2021/12/24 00:17:22;;;;;;;289.20;137.52;;;;;;;;;;5095246;28;20411;-64
2021/12/24 00:36:11;;;;;;;296.42;137.55;;;;;;;;;;5094563;28;20086;-65
2021/12/24 00:38:38;;;;;;;271.02;131.40;;;;;;;;;;5094453;28;20125;-65
2021/12/24 00:41:05;;;;;;;273.33;127.82;;;;;;;;;;5094110;28;20369;-65
2021/12/24 00:43:32;;;;;;;264.00;126.20;;;;;;;;;;5093040;28;20032;-67
2021/12/24 00:45:58;;;;;;;271.27;130.57;;;;;;;;;;5094644;28;20043;-66
2021/12/24 00:48:24;;;;;;;257.55;123.55;;;;;;;;;;5094244;28;20028;-66
2021/12/24 00:56:04;;;;;;;284.35;132.27;;;;;;;;;;5094094;28;20419;-65
2021/12/24 00:58:31;;;;;;;281.60;130.32;;;;;;;;;;5094073;28;20043;-65
2021/12/24 01:00:57;;;;;;;256.05;121.13;;;;;;;;;;5092762;28;20177;-65
2021/12/24 01:03:24;;;;;;;241.77;113.88;;;;;;;;;;5092666;28;20020;-64
2021/12/24 01:05:50;;;;;;;213.85;103.43;;;;;;;;;;5094303;28;20028;-64
2021/12/24 01:08:17;;;;;;;199.95;100.03;;;;;;;;;;5092587;28;20024;-64
2021/12/24 01:10:45;;;;;;;185.90;93.97;;;;;;;;;;5093805;28;20054;-64
2021/12/24 01:13:12;;;;;;;188.00;94.00;;;;;;;;;;5092666;28;20361;-64
2021/12/24 01:15:49;;;;;;;186.02;93.10;;;;;;;;;;5093887;28;20115;-64
2021/12/24 01:18:35;;;;;;;269.92;128.82;;;;;;;;;;5093806;28;20020;-64
2021/12/24 01:26:24;;;;;;;598.38;363.23;;;;;;;;;;5093675;28;20119;-64
2021/12/24 01:29:58;;;;;;;659.00;405.92;;;;;;;;;;5093696;28;20035;-64
2021/12/24 01:42:47;;;;;;;246.98;117.78;;;;;;;;;;5093167;28;20039;-64
2021/12/24 01:45:18;;;;;;;553.00;292.92;;;;;;;;;;5093396;28;20031;-64
2021/12/24 01:47:45;;;;;;;682.72;372.15;;;;;;;;;;5093408;28;20027;-64
2021/12/24 01:50:12;;;;;;;746.45;404.80;;;;;;;;;;5092771;28;20062;-64
2021/12/24 01:52:38;;;;;;;392.23;186.05;;;;;;;;;;5093216;28;20055;-64
2021/12/24 01:55:05;;;;;;;398.90;195.45;;;;;;;;;;5091965;28;20024;-64
2021/12/24 01:57:32;;;;;;;522.30;272.02;;;;;;;;;;5091909;28;20024;-64
2021/12/24 01:59:59;;;;;;;344.58;164.73;;;;;;;;;;5093179;28;20050;-64
2021/12/24 02:02:27;;;;;;;422.25;195.52;;;;;;;;;;5093127;28;20031;-64
2021/12/24 02:04:53;;;;;;;443.33;207.43;;;;;;;;;;5093166;28;20472;-64
2021/12/24 02:07:20;;;;;;;315.17;136.77;;;;;;;;;;5093059;28;20483;-64
2021/12/24 02:09:46;;;;;;;265.92;119.70;;;;;;;;;;5091726;28;20034;-66
2021/12/24 02:12:14;;;;;;;262.80;120.47;;;;;;;;;;5093006;28;20035;-66
2021/12/24 02:14:43;;;;;;;237.10;111.22;;;;;;;;;;5093064;28;20024;-66
2021/12/24 02:17:38;;;;;;;243.27;110.80;;;;;;;;;;5093002;28;20111;-66
2021/12/24 02:30:52;;;;;;;179.07;87.43;;;;;;;;;;5096913;28;20177;-67
2021/12/24 02:33:19;;;;;;;178.23;86.93;;;;;;;;;;5095578;28;20068;-65
2021/12/24 02:35:45;;;;;;;162.20;80.75;;;;;;;;;;5096875;28;20019;-65
2021/12/24 02:38:11;;;;;;;148.68;77.78;;;;;;;;;;5096789;28;20059;-66
2021/12/24 02:40:38;;;;;;;172.43;85.75;;;;;;;;;;5096781;28;20043;-65
2021/12/24 02:43:04;;;;;;;155.13;78.88;;;;;;;;;;5096679;28;20158;-65
2021/12/24 02:45:34;;;;;;;158.82;77.05;;;;;;;;;;5096743;28;20086;-65
2021/12/24 02:56:00;;;;;;;144.63;70.32;;;;;;;;;;5096542;28;20035;-65
2021/12/24 02:58:26;;;;;;;142.00;72.45;;;;;;;;;;5096436;28;20055;-66
2021/12/24 03:00:53;;;;;;;141.93;73.25;;;;;;;;;;5096384;28;20111;-66
2021/12/24 03:03:19;;;;;;;144.10;73.85;;;;;;;;;;5095012;28;20380;-65
2021/12/24 03:05:45;;;;;;;151.38;76.70;;;;;;;;;;5095129;28;20093;-65
2021/12/24 03:08:12;;;;;;;126.40;65.88;;;;;;;;;;5094947;28;20123;-65
2021/12/24 03:10:38;;;;;;;128.45;66.38;;;;;;;;;;5094802;28;20388;-65
2021/12/24 03:13:04;;;;;;;127.60;65.75;;;;;;;;;;5096181;28;20028;-65
2021/12/24 03:15:31;;;;;;;125.30;65.05;;;;;;;;;;5094845;28;20030;-65
2021/12/24 03:17:59;;;;;;;138.88;70.75;;;;;;;;;;5096086;28;20032;-65
2021/12/24 03:20:28;;;;;;;150.50;76.53;;;;;;;;;;5094742;28;20427;-65
2021/12/24 03:23:22;;;;;;;154.05;74.28;;;;;;;;;;5096014;28;20024;-65
2021/12/24 03:25:48;;;;;;;151.23;76.97;;;;;;;;;;5096013;28;20032;-64
2021/12/24 03:28:16;;;;;;;162.80;77.25;;;;;;;;;;5095880;28;20047;-64
2021/12/24 03:30:42;;;;;;;174.02;83.30;;;;;;;;;;5095750;28;20089;-64
2021/12/24 03:33:08;;;;;;;172.27;82.03;;;;;;;;;;5095734;28;20116;-64
2021/12/24 03:35:34;;;;;;;189.50;90.10;;;;;;;;;;5095525;28;20024;-64
2021/12/24 03:38:01;;;;;;;204.27;94.55;;;;;;;;;;5093660;28;20118;-65
2021/12/24 03:40:27;;;;;;;192.38;92.05;;;;;;;;;;5095342;28;20050;-65
2021/12/24 03:42:53;;;;;;;223.23;105.95;;;;;;;;;;5094282;28;20422;-65
2021/12/24 03:48:23;;;;;;;231.80;104.40;;;;;;;;;;5085888;28;20393;-65
2021/12/24 03:56:05;;;;;;;243.35;112.47;;;;;;;;;;5075062;28;20040;-65
2021/12/24 03:58:32;;;;;;;272.35;119.75;;;;;;;;;;5095564;28;20443;-65
2021/12/24 04:00:58;;;;;;;266.05;118.35;;;;;;;;;;5094192;28;20380;-65
2021/12/24 04:03:24;;;;;;;276.65;126.07;;;;;;;;;;5095175;28;20476;-65
2021/12/24 04:05:51;;;;;;;282.33;125.75;;;;;;;;;;5095212;28;20027;-65
2021/12/24 04:08:17;;;;;;;274.33;126.90;;;;;;;;;;5093777;28;20072;-65
2021/12/24 04:10:43;;;;;;;268.13;122.40;;;;;;;;;;5094958;28;20036;-64
2021/12/24 04:13:11;;;;;;;282.05;131.93;;;;;;;;;;5094979;28;20102;-65
2021/12/24 04:15:38;;;;;;;289.40;126.95;;;;;;;;;;5094648;28;20518;-65
2021/12/24 04:18:13;;;;;;;299.38;136.57;;;;;;;;;;5093611;28;20468;-65
2021/12/24 04:26:08;;;;;;;309.00;137.75;;;;;;;;;;5094483;28;20039;-65
2021/12/24 04:28:35;;;;;;;269.95;128.75;;;;;;;;;;5093434;28;20020;-65
2021/12/24 04:31:02;;;;;;;294.85;138.02;;;;;;;;;;5094564;28;20469;-64
2021/12/24 04:33:34;;;;;;;295.52;138.18;;;;;;;;;;5093274;28;20486;-65
2021/12/24 04:36:14;;;;;;;;;;;;;;;;;;5093792;28;20024;-65
2021/12/24 04:39:11;;;;;;;279.38;131.30;;;;;;;;;;5094594;28;19927;-65
2021/12/24 05:03:33;;;;;;;225.00;108.28;;;;;;;;;;5094105;28;20038;-65
2021/12/24 05:08:41;;;;;;;229.75;112.60;;;;;;;;;;5093982;28;20062;-65
2021/12/24 05:11:10;;;;;;;236.15;112.50;;;;;;;;;;5093894;28;20036;-65
2021/12/24 05:13:37;;;;;;;239.80;116.22;;;;;;;;;;5093895;28;20101;-65
2021/12/24 05:16:16;;;;;;;250.10;121.63;;;;;;;;;;5093824;28;20024;-65
2021/12/24 05:21:33;;;;;;;250.52;118.55;;;;;;;;;;5093757;28;20027;-68
2021/12/24 05:24:15;;;;;;;244.27;116.35;;;;;;;;;;5093790;28;20029;-65
2021/12/24 05:26:43;;;;;;;232.95;113.32;;;;;;;;;;5093801;28;20032;-65
2021/12/24 05:29:10;;;;;;;223.30;109.03;;;;;;;;;;5093611;28;20071;-65
2021/12/24 05:31:36;;;;;;;205.68;96.15;;;;;;;;;;5093596;28;20078;-64
2021/12/24 05:34:03;;;;;;;160.07;79.18;;;;;;;;;;5093499;28;20102;-64
2021/12/24 05:36:29;;;;;;;218.85;102.32;;;;;;;;;;5093224;28;20069;-64
2021/12/24 05:38:56;;;;;;;123.80;60.38;;;;;;;;;;5093432;28;20016;-64
2021/12/24 05:41:22;;;;;;;242.43;114.97;;;;;;;;;;5092096;28;20085;-65
2021/12/24 05:43:51;;;;;;;221.38;108.32;;;;;;;;;;5093059;28;20400;-65
2021/12/24 05:46:18;;;;;;;204.73;98.10;;;;;;;;;;5093368;28;20028;-65
2021/12/24 05:48:44;;;;;;;164.80;80.38;;;;;;;;;;5093605;28;20095;-65
2021/12/24 05:51:10;;;;;;;178.23;86.10;;;;;;;;;;5092738;28;20048;-64
2021/12/24 05:53:37;;;;;;;133.05;61.45;;;;;;;;;;5093258;28;20377;-65
2021/12/24 05:56:04;;;;;;;101.78;49.58;;;;;;;;;;5091839;28;20496;-65
2021/12/24 05:58:30;;;;;;;129.13;60.95;;;;;;;;;;5093248;28;20103;-64
2021/12/24 06:00:57;;;;;;;172.13;83.25;;;;;;;;;;5092568;28;20032;-64
2021/12/24 06:03:23;;;;;;;178.80;84.38;;;;;;;;;;5091688;28;20508;-64
2021/12/24 06:05:49;;;;;;;188.30;92.25;;;;;;;;;;5091730;28;20059;-64
2021/12/24 06:08:16;;;;;;;166.55;82.10;;;;;;;;;;5092867;28;20046;-64
2021/12/24 06:10:43;;;;;;;195.13;88.85;;;;;;;;;;5091587;28;20503;-64
2021/12/24 06:13:11;;;;;;;172.13;88.50;;;;;;;;;;5093054;28;20035;-65
2021/12/24 06:15:48;;;;;;;165.63;82.20;;;;;;;;;;5092962;28;20020;-66
2021/12/24 06:18:26;;;;;;;178.25;87.22;;;;;;;;;;5092841;28;20039;-65
2021/12/24 06:20:53;;;;;;;133.30;68.53;;;;;;;;;;5091682;28;20426;-66
2021/12/24 06:23:21;;;;;;;136.60;70.53;;;;;;;;;;5091547;28;20438;-66
2021/12/24 06:25:49;;;;;;;191.82;91.78;;;;;;;;;;5091543;28;20055;-66
2021/12/24 06:28:16;;;;;;;202.00;97.53;;;;;;;;;;5092874;28;20100;-66
2021/12/24 06:30:43;;;;;;;212.95;107.35;;;;;;;;;;5091312;28;20044;-66
2021/12/24 06:33:09;;;;;;;191.88;99.53;;;;;;;;;;5092755;28;20020;-67
2021/12/24 06:35:35;;;;;;;181.13;90.25;;;;;;;;;;5092842;28;20146;-65
2021/12/24 06:38:02;;;;;;;200.60;98.45;;;;;;;;;;5092442;28;20465;-66
2021/12/24 06:40:28;;;;;;;196.43;100.68;;;;;;;;;;5092736;28;20028;-67
2021/12/24 06:42:54;;;;;;;217.95;105.97;;;;;;;;;;5092730;28;20439;-65
2021/12/24 06:45:24;;;;;;;189.20;95.50;;;;;;;;;;5092652;28;20024;-66
2021/12/24 06:47:51;;;;;;;193.07;95.20;;;;;;;;;;5092510;28;20025;-66
2021/12/24 06:50:17;;;;;;;177.88;85.45;;;;;;;;;;5092333;28;20510;-67
2021/12/24 06:52:43;;;;;;;185.68;88.10;;;;;;;;;;5092247;28;20337;-67
2021/12/24 06:55:10;;;;;;;195.65;99.22;;;;;;;;;;5091125;28;20028;-65
2021/12/24 06:57:37;;;;;;;198.20;99.50;;;;;;;;;;5092045;28;20389;-68
2021/12/24 07:00:04;;;;;;;187.38;96.55;;;;;;;;;;5091394;28;20510;-66
2021/12/24 07:02:30;;;;;;;193.70;96.43;;;;;;;;;;5091611;28;20077;-66
2021/12/24 07:04:57;;;;;;;201.43;101.88;;;;;;;;;;5089829;28;20064;-66
2021/12/24 07:07:23;;;;;;;193.80;95.55;;;;;;;;;;5091006;28;20031;-66
2021/12/24 07:09:49;;;;;;;190.77;96.45;;;;;;;;;;5091104;28;20504;-66
2021/12/24 07:12:15;;;;;;;195.90;97.72;;;;;;;;;;5092618;28;20028;-66
2021/12/24 07:14:42;;;;;;;193.20;93.82;;;;;;;;;;5094380;28;20046;-67
2021/12/24 07:17:09;;;;;;;195.38;96.38;;;;;;;;;;5090182;28;20024;-66
2021/12/24 07:19:35;;;;;;;198.55;99.82;;;;;;;;;;5092977;28;20059;-64
2021/12/24 07:22:02;;;;;;;203.52;102.38;;;;;;;;;;5094002;28;20101;-64
2021/12/24 07:24:29;;;;;;;201.65;104.88;;;;;;;;;;5085511;28;20031;-64
2021/12/24 07:26:55;;;;;;;216.25;104.93;;;;;;;;;;5083376;28;20138;-64
2021/12/24 07:29:21;;;;;;;232.15;109.80;;;;;;;;;;5078742;28;20032;-65
2021/12/24 07:31:47;;;;;;;209.98;107.82;;;;;;;;;;5075228;28;20085;-65
2021/12/24 07:34:14;;;;;;;195.65;103.35;;;;;;;;;;5075382;28;20025;-65
2021/12/24 07:36:40;;;;;;;225.20;114.50;;;;;;;;;;5075033;28;20108;-66
2021/12/24 07:39:06;;;;;;;244.93;108.15;;;;;;;;;;5073842;28;20123;-68
2021/12/24 07:41:32;;;;;;;241.32;105.45;;;;;;;;;;5075245;28;20039;-65
2021/12/24 07:43:58;;;;;;;197.93;95.50;;;;;;;;;;5075225;28;20020;-65
2021/12/24 07:46:32;;;;;;;115.20;54.75;;;;;;;;;;5075167;28;20028;-66
2021/12/24 07:49:11;;;;;;;169.13;83.22;;;;;;;;;;5075250;28;20031;-66
2021/12/24 07:54:23;;;;;;;144.30;69.15;;;;;;;;;;5054818;28;20144;-65
2021/12/24 07:56:49;;;;;;;134.40;65.95;;;;;;;;;;5055016;28;20025;-66
2021/12/24 07:59:16;;;;;;;113.22;61.35;;;;;;;;;;5055267;28;20029;-64
2021/12/24 08:01:46;;;;;;;105.15;52.78;;;;;;;;;;5054922;28;20032;-64
2021/12/24 08:04:13;;;;;;;68.18;33.45;;;;;;;;;;5054829;28;20025;-65
2021/12/24 08:06:39;;;;;;;67.20;29.00;;;;;;;;;;5054648;28;20028;-65
2021/12/24 08:09:09;;;;;;;81.13;38.25;;;;;;;;;;5036709;28;20067;-65
2021/12/24 08:11:35;;;;;;;75.20;32.10;;;;;;;;;;5062704;28;20391;-71
2021/12/24 08:14:02;;;;;;;75.85;38.95;;;;;;;;;;5074167;28;20033;-70
2021/12/24 08:16:29;;;;;;;56.80;29.08;;;;;;;;;;5074263;28;20060;-66
2021/12/24 08:18:56;;;;;;;50.45;22.92;;;;;;;;;;5056440;28;20028;-66
2021/12/24 08:21:22;;;;;;;48.65;22.23;;;;;;;;;;5067488;28;20162;-67
2021/12/24 08:23:48;;;;;;;58.83;23.27;;;;;;;;;;5053508;28;20723;-66
2021/12/24 08:26:16;;;;;;;50.92;23.45;;;;;;;;;;5054241;28;20103;-68
2021/12/24 08:28:42;;;;;;;44.00;23.05;;;;;;;;;;5054068;28;20380;-66
2021/12/24 08:31:09;;;;;;;60.85;27.85;;;;;;;;;;5054120;28;20029;-68
2021/12/24 08:33:36;;;;;;;71.30;33.22;;;;;;;;;;5054146;28;20029;-69
2021/12/24 08:36:05;;;;;;;57.25;28.63;;;;;;;;;;5054254;28;20032;-69
2021/12/24 08:38:32;;;;;;;60.47;29.83;;;;;;;;;;5054023;28;20103;-67
2021/12/24 08:40:58;;;;;;;57.67;28.65;;;;;;;;;;5067579;28;20468;-66
2021/12/24 08:43:25;;;;;;;56.10;29.10;;;;;;;;;;5056070;28;20124;-67
2021/12/24 08:45:51;;;;;;;57.65;31.40;;;;;;;;;;5055445;28;20460;-64
2021/12/24 08:48:17;;;;;;;61.58;29.95;;;;;;;;;;5073681;28;20027;-66
2021/12/24 08:50:47;;;;;;;49.53;25.73;;;;;;;;;;5085953;28;20123;-65
2021/12/24 08:53:14;;;;;;;38.17;18.65;;;;;;;;;;5092532;28;20050;-66
2021/12/24 08:55:41;;;;;;;22.77;9.82;;;;;;;;;;5094090;28;20016;-67
2021/12/24 08:58:07;;;;;;;5.65;4.05;;;;;;;;;;5094123;28;20114;-67
2021/12/24 09:00:34;;;;;;;9.05;3.45;;;;;;;;;;5094011;28;20153;-67
2021/12/24 09:03:01;;;;;;;6.25;3.42;;;;;;;;;;5109388;28;20115;-67
2021/12/24 09:05:28;;;;;;;4.85;3.28;;;;;;;;;;5093968;28;20103;-67
2021/12/24 09:07:54;;;;;;;8.75;5.15;;;;;;;;;;5109524;28;20048;-69
2021/12/24 09:10:20;;;;;;;6.32;3.60;;;;;;;;;;5093737;28;20024;-67
2021/12/24 09:12:47;;;;;;;8.50;4.35;;;;;;;;;;5093713;28;20028;-69
2021/12/24 09:15:15;;;;;;;5.95;3.67;;;;;;;;;;5093403;28;20047;-68
2021/12/24 09:17:46;;;;;;;7.03;2.92;;;;;;;;;;5093306;28;20034;-68
2021/12/24 09:20:14;;;;;;;7.78;4.20;;;;;;;;;;5093834;28;20024;-68
2021/12/24 09:22:41;;;;;;;13.25;6.00;;;;;;;;;;5093694;28;20077;-69
2021/12/24 09:25:08;;;;;;;17.13;7.22;;;;;;;;;;5093634;28;20016;-68
2021/12/24 09:27:34;;;;;;;7.60;4.82;;;;;;;;;;5093867;28;20499;-67
2021/12/24 09:30:00;;;;;;;9.45;3.83;;;;;;;;;;5108856;28;20111;-68
2021/12/24 09:32:29;;;;;;;6.45;4.03;;;;;;;;;;5093129;28;20059;-68
2021/12/24 09:34:55;;;;;;;4.60;2.97;;;;;;;;;;5108332;28;20031;-69
2021/12/24 09:37:21;;;;;;;5.40;3.30;;;;;;;;;;5108743;28;20038;-68
2021/12/24 09:39:48;;;;;;;5.63;3.08;;;;;;;;;;5092278;28;20023;-67
2021/12/24 09:42:14;;;;;;;8.13;3.95;;;;;;;;;;5107604;28;20123;-67
2021/12/24 09:44:40;;;;;;;9.85;3.53;;;;;;;;;;5092938;28;20524;-68
2021/12/24 09:47:07;;;;;;;9.35;4.63;;;;;;;;;;5093132;28;20024;-68
2021/12/24 09:49:33;;;;;;;7.50;3.78;;;;;;;;;;5108706;28;20079;-68
2021/12/24 09:52:00;;;;;;;9.75;5.22;;;;;;;;;;5093145;28;20046;-68
2021/12/24 09:54:27;;;;;;;11.60;4.00;;;;;;;;;;5093145;28;20499;-67
2021/12/24 09:56:54;;;;;;;12.23;5.05;;;;;;;;;;5092825;28;20028;-68
2021/12/24 09:59:20;;;;;;;9.90;4.13;;;;;;;;;;5093192;28;20031;-67
2021/12/24 10:01:54;;;;;;;7.55;3.50;;;;;;;;;;5108713;28;20034;-68
2021/12/24 10:04:21;;;;;;;6.10;3.40;;;;;;;;;;5108787;28;20028;-70
2021/12/24 10:06:52;;;;;;;5.57;3.15;;;;;;;;;;5092968;28;20024;-69
2021/12/24 10:09:18;;;;;;;8.98;3.75;;;;;;;;;;5093029;28;20027;-68
2021/12/24 10:11:47;;;;;;;5.88;3.38;;;;;;;;;;5092933;28;20371;-68
2021/12/24 10:14:14;;;;;;;7.07;4.15;;;;;;;;;;5092978;28;20021;-67
2021/12/24 10:16:47;;;;;;;5.82;2.83;;;;;;;;;;5092943;28;20023;-68
2021/12/24 10:19:14;;;;;;;3.15;2.53;;;;;;;;;;5093024;28;20020;-67
2021/12/24 10:21:40;;;;;;;6.05;3.90;;;;;;;;;;5092982;28;20024;-67
2021/12/24 10:24:10;;;;;;;11.30;4.25;;;;;;;;;;5092937;28;20102;-68
2021/12/24 10:26:44;;;;;;;12.23;4.75;;;;;;;;;;5108530;28;20465;-68
2021/12/24 10:29:19;;;;;;;4.00;2.47;;;14.30;76.70;;;;;;5108611;28;20419;-67
2021/12/24 10:31:53;;;;;;;10.02;3.58;;;14.70;77.80;;;;;;5092847;28;20042;-66
2021/12/24 10:34:24;;;;;;;8.73;2.65;;;;;;;;;;5092859;28;20053;-68
2021/12/24 10:36:54;;;;;;;5.30;3.50;;;14.80;77.50;;;;;;5092804;28;20020;-68
2021/12/24 10:39:45;;;;;;;7.80;4.20;;;15.10;77.30;;;;;;5108486;28;20442;-68
2021/12/24 10:42:35;;;;;;;9.30;5.53;;;14.90;76.50;;;;;;5080293;28;20059;-68
2021/12/24 10:45:02;;;;;;;10.23;5.40;;;;;;;;;;5092783;28;20028;-65
2021/12/24 10:47:36;;;;;;;7.15;4.03;;;15.20;76.00;;;;;;5096335;28;20028;-64
2021/12/24 10:53:17;;;;;;;9.68;3.20;;;15.70;74.20;;;;;;5096666;28;20039;-68
2021/12/24 10:55:47;;;;;;;6.13;2.92;;;;;;;;;;5096616;28;20024;-67
2021/12/24 10:58:15;;;;;;;8.27;3.78;;;;;;;;;;5096455;28;20032;-68
2021/12/24 11:00:53;;;;;;;6.50;3.95;;;15.30;74.30;;;;;;5096436;28;20056;-67
2021/12/24 11:03:22;;;;;;;7.78;5.63;;;;;;;;;;5112024;28;20039;-67
2021/12/24 11:06:08;;;;;;;10.60;3.83;;;;;;;;;;5096187;28;20016;-68
2021/12/24 11:08:35;;;;;;;9.32;3.47;;;;;;;;;;5095958;28;20036;-68
2021/12/24 11:11:02;;;;;;;7.78;3.08;;;;;;;;;;5096190;28;20056;-67
2021/12/24 11:13:37;;;;;;;4.65;2.67;;;;;;;;;;5096185;28;20024;-65
2021/12/24 11:16:05;;;;;;;3.95;2.72;;;;;;;;;;5095890;28;20146;-63
2021/12/24 11:18:36;;;;;;;8.68;4.88;;;;;;;;;;5094331;28;20039;-62
2021/12/24 11:21:02;;;;;;;6.00;3.63;;;;;;;;;;5079980;28;20024;-65
2021/12/24 11:23:30;;;;;;;4.60;3.38;;;14.60;75.80;;;;;;5096055;28;20036;-62
2021/12/24 11:25:58;;;;;;;5.80;3.60;;;;;;;;;;5094499;28;20028;-62
2021/12/24 11:28:26;;;;;;;7.22;4.20;;;14.30;77.90;;;;;;5095755;28;20023;-64
2021/12/24 11:30:55;;;;;;;5.97;3.55;;;14.20;78.40;;;;;;5095599;28;20469;-64
2021/12/24 11:33:22;;;;;;;4.82;3.22;;;;;;;;;;5095679;28;20467;-64
2021/12/24 11:35:49;;;;;;;6.57;3.75;;;;;;;;;;5095631;28;20031;-64
2021/12/24 11:38:17;;;;;;;9.75;4.38;;;;;;;;;;5094178;28;20024;-65
2021/12/24 11:40:45;;;;;;;11.45;4.68;;;14.20;78.20;;;;;;5095296;28;20020;-65
2021/12/24 11:43:12;;;;;;;13.10;6.28;;;14.30;79.80;;;;;;5095440;28;20028;-62
2021/12/24 11:45:38;;;;;;;16.60;7.72;;;14.40;79.50;;;;;;5094110;28;20032;-62
2021/12/24 11:48:06;;;;;;;13.68;5.95;;;14.40;79.60;;;;;;5095332;28;20376;-65
2021/12/24 11:50:33;;;;;;;8.80;4.57;;;14.50;79.90;;;;;;5092930;28;20143;-64
2021/12/24 11:53:06;;;;;;;8.57;4.75;;;14.60;78.40;;;;;;5127908;27;20043;-63
2021/12/24 11:55:34;;;;;;;5.40;3.35;;;;;;;;;;5095373;28;20496;-63
2021/12/24 11:58:01;;;;;;;9.13;4.18;;;;;;;;;;5094383;28;20546;-63
2021/12/24 12:00:31;;;;;;;5.38;3.90;;;14.60;78.30;;;;;;5093810;28;20473;-63
2021/12/24 12:02:57;;;;;;;9.77;4.45;;;;;;;;;;5093762;28;20039;-63
2021/12/24 12:05:28;;;;;;;9.40;4.25;;;;;;;;;;5095138;28;20028;-63
2021/12/24 12:08:14;;;;;;;8.95;4.00;;;;;;;;;;5093761;28;20024;-63
2021/12/24 12:10:53;;;;;;;14.18;4.13;;;;;;;;;;5093383;28;20078;-62
2021/12/24 12:13:37;;;;;;;8.85;4.80;;;;;;;;;;5094951;28;20028;-63
2021/12/24 12:16:05;;;;;;;8.30;4.35;;;;;;;;;;5095172;28;20031;-63
2021/12/24 12:18:33;;;;;;;16.83;4.90;;;;;;;;;;5094814;28;20046;-63
2021/12/24 12:21:11;;;;;;;10.10;4.43;;;15.00;75.40;;;;;;5094829;28;20073;-63
2021/12/24 12:26:43;;;;;;;9.50;5.85;;;14.70;77.40;;;;;;5072854;28;20036;-63
2021/12/24 12:29:18;;;;;;;10.95;5.85;;;14.70;78.10;;;;;;5094702;28;20020;-63
2021/12/24 12:31:45;;;;;;;12.65;6.13;;;;;;;;;;5094606;28;20137;-63
2021/12/24 12:34:29;;;;;;;12.10;5.32;;;;;;;;;;5094616;28;20024;-63
2021/12/24 12:37:11;;;;;;;7.50;3.47;;;;;;;;;;5094211;28;20039;-63
2021/12/24 12:39:37;;;;;;;6.22;3.53;;;;;;;;;;5093121;28;20028;-63
2021/12/24 12:42:04;;;;;;;5.35;2.92;;;;;;;;;;5094204;28;20052;-63
2021/12/24 12:44:32;;;;;;;6.97;2.85;;;;;;;;;;5093062;28;20423;-63
2021/12/24 12:47:24;;;;;;;7.05;3.50;;;;;;;;;;5091781;28;20049;-63
2021/12/24 12:49:55;;;;;;;7.90;2.97;;;;;;;;;;5090601;28;20048;-63
2021/12/24 12:52:24;;;;;;;4.45;3.03;;;;;;;;;;5092434;28;20039;-64
2021/12/24 12:54:58;;;;;;;7.10;2.85;;;;;;;;;;5094074;28;20111;-64
2021/12/24 12:57:24;;;;;;;5.47;2.78;;;;;;;;;;5093978;28;20016;-63
2021/12/24 13:00:10;;;;;;;4.90;2.90;;;;;;;;;;5092780;28;20059;-63
2021/12/24 13:02:55;;;;;;;8.55;2.97;;;;;;;;;;5093804;28;20024;-63
2021/12/24 13:05:21;;;;;;;10.20;3.10;;;;;;;;;;5094022;28;20058;-63
2021/12/24 13:07:48;;;;;;;6.03;3.50;;;;;;;;;;5093918;28;20368;-65
2021/12/24 13:10:18;;;;;;;11.38;4.00;;;;;;;;;;5093871;28;20012;-64
2021/12/24 13:12:44;;;;;;;15.70;5.13;;;;;;;;;;5093895;28;20024;-64
2021/12/24 13:15:16;;;;;;;12.05;5.13;;;;;;;;;;5093753;28;20058;-64
2021/12/24 13:17:47;;;;;;;19.48;7.93;;;;;;;;;;5093672;28;20070;-63
2021/12/24 13:20:33;;;;;;;11.35;5.72;;;;;;;;;;5092300;28;20028;-65
2021/12/24 13:23:02;;;;;;;14.00;6.70;;;;;;;;;;5093655;28;20097;-65
2021/12/24 13:25:28;;;;;;;14.65;5.55;;;;;;;;;;5093280;28;20066;-65
2021/12/24 13:27:57;;;;;;;9.90;5.10;;;;;;;;;;5093240;28;20377;-65
2021/12/24 13:30:25;;;;;;;8.88;4.18;;;14.80;77.70;;;;;;5093618;28;20024;-64
2021/12/24 13:32:54;;;;;;;6.40;3.22;;;15.60;77.50;;;;;;5093369;28;20101;-64
2021/12/24 13:35:21;;;;;;;4.40;2.80;;;15.60;76.60;;;;;;5093384;28;20028;-64
2021/12/24 13:37:48;;;;;;;9.95;3.38;;;15.50;75.80;;;;;;5093443;28;20085;-65
2021/12/24 13:40:18;;;;;;;7.72;4.80;;;15.50;76.80;;;;;;5093459;28;20034;-65
2021/12/24 13:42:46;;;;;;;8.23;3.47;;;;;;;;;;5093481;28;20110;-65
2021/12/24 13:45:13;;;;;;;9.07;2.90;;;15.70;75.90;;;;;;5093302;28;20103;-65
2021/12/24 13:47:55;;;;;;;6.68;2.63;;;;;;;;;;5093354;28;20050;-65
2021/12/24 13:54:30;;;;;;;11.63;2.75;;;15.70;76.00;;;;;;5093174;28;20055;-65
2021/12/24 13:55:57;;;;;;;5.57;2.45;;;;;;;;;;5093087;28;20052;-65
2021/12/24 13:58:23;;;;;;;3.58;2.45;;;15.80;75.20;;;;;;5093052;28;20086;-65
2021/12/24 14:00:56;;;;;;;12.50;3.03;;;16.00;74.80;;;;;;5093221;28;20028;-64
2021/12/24 14:03:25;;;;;;;9.25;3.78;;;15.60;75.90;;;;;;5093114;28;20028;-65
2021/12/24 14:05:52;;;;;;;11.38;5.05;;;;;;;;;;5091744;28;20031;-65
2021/12/24 14:08:20;;;;;;;12.10;5.80;;;;;;;;;;5091012;28;20063;-64
2021/12/24 14:10:47;;;;;;;9.40;5.40;;;;;;;;;;5092324;28;20108;-64
2021/12/24 14:13:30;;;;;;;7.88;4.32;;;15.40;74.90;;;;;;5092907;28;20020;-65
2021/12/24 14:18:48;;;;;;;13.02;7.90;;;14.40;78.80;;;;;;5092726;28;20034;-64
2021/12/24 14:24:12;;;;;;;30.48;13.20;;;;;;;;;;5095690;28;20032;-65
2021/12/24 14:26:39;;;;;;;28.17;12.77;;;;;;;;;;5096094;28;20031;-65
2021/12/24 14:29:07;;;;;;;35.42;17.45;;;;;;;;;;5096481;28;20021;-64
2021/12/24 14:31:57;;;;;;;28.70;13.27;;;14.10;81.20;;;;;;5096589;28;20028;-64
2021/12/24 14:34:39;;;;;;;29.73;13.27;;;13.50;82.90;;;;;;5096834;28;20087;-64
2021/12/24 14:37:07;;;;;;;35.38;15.57;;;;;;;;;;5096732;28;20032;-64
2021/12/24 14:39:45;;;;;;;20.50;8.13;;;13.30;83.00;;;;;;5096718;28;20016;-64
2021/12/24 14:42:23;;;;;;;11.70;5.53;;;13.20;83.70;;;;;;5096745;28;20066;-64
2021/12/24 14:44:55;;;;;;;12.00;6.18;;;13.10;84.00;;;;;;5095574;28;20059;-65
2021/12/24 14:47:25;;;;;;;22.75;7.43;;;;;;;;;;5095083;28;20377;-64
2021/12/24 14:49:58;;;;;;;30.48;10.40;;;;;;;;;;5094951;28;20044;-64
2021/12/24 14:52:26;;;;;;;15.27;6.60;;;;;;;;;;5094834;28;20040;-64
2021/12/24 14:55:07;;;;;;;20.92;6.80;;;;;;;;;;5094942;28;20035;-64
2021/12/24 14:57:35;;;;;;;23.00;6.97;;;;;;;;;;5095135;28;20022;-64
2021/12/24 15:00:08;;;;;;;11.57;6.22;;;;;;;;;;5096360;28;20023;-64
2021/12/24 15:02:42;;;;;;;18.98;6.53;;;;;;;;;;5095997;28;20567;-64
2021/12/24 15:05:08;;;;;;;20.15;8.25;;;;;;;;;;5096248;28;20027;-64
2021/12/24 15:07:35;;;;;;;15.10;6.82;;;;;;;;;;5096019;28;20073;-65
2021/12/24 15:10:11;;;;;;;11.77;5.38;;;;;;;;;;5094757;28;20099;-65
2021/12/24 15:12:50;;;;;;;11.05;4.20;;;;;;;;;;5094278;28;20027;-65
2021/12/24 15:15:17;;;;;;;12.38;4.18;;;;;;;;;;5083829;28;20024;-67
2021/12/24 15:17:45;;;;;;;11.85;5.47;;;;;;;;;;5095774;28;20081;-68
2021/12/24 15:20:12;;;;;;;13.13;6.47;;;;;;;;;;5096249;28;20047;-66
2021/12/24 15:22:38;;;;;;;10.02;5.70;;;;;;;;;;5096134;28;20099;-66
2021/12/24 15:25:06;;;;;;;7.10;3.95;;;;;;;;;;5096012;28;20024;-67
2021/12/24 15:27:35;;;;;;;8.10;4.15;;;;;;;;;;5094520;28;20036;-66
2021/12/24 15:30:02;;;;;;;10.32;5.13;;;;;;;;;;5094454;28;20024;-64
2021/12/24 15:32:28;;;;;;;9.77;4.53;;;;;;;;;;5082867;28;20185;-64
2021/12/24 15:34:54;;;;;;;13.38;4.35;;;;;;;;;;5086521;28;20031;-64
2021/12/24 15:37:21;;;;;;;11.68;4.90;;;;;;;;;;5095666;28;20107;-64
2021/12/24 15:39:47;;;;;;;8.07;4.53;;;;;;;;;;5095622;28;20083;-64
2021/12/24 15:42:15;;;;;;;7.00;4.43;;;;;;;;;;5095293;28;20040;-64
2021/12/24 15:44:46;;;;;;;7.25;3.92;;;;;;;;;;5095578;28;20085;-65
2021/12/24 15:47:12;;;;;;;11.65;4.35;;;;;;;;;;5094642;28;20016;-66
2021/12/24 15:49:38;;;;;;;8.85;3.72;;;;;;;;;;5094564;28;20437;-66
2021/12/24 15:52:04;;;;;;;9.15;4.85;;;;;;;;;;5095107;28;20119;-67
2021/12/24 15:54:31;;;;;;;12.32;4.88;;;;;;;;;;5094623;28;20099;-65
2021/12/24 15:56:57;;;;;;;8.60;4.82;;;;;;;;;;5095199;28;20346;-68
2021/12/24 15:59:25;;;;;;;13.43;6.55;;;;;;;;;;5095061;28;20487;-67
2021/12/24 16:01:52;;;;;;;13.13;6.38;;;;;;;;;;5110428;28;20081;-67
2021/12/24 16:04:18;;;;;;;10.70;4.15;;;;;;;;;;5110552;28;20024;-67
2021/12/24 16:06:44;;;;;;;8.13;4.45;;;;;;;;;;5095067;28;20108;-67
2021/12/24 16:09:11;;;;;;;17.27;8.25;;;;;;;;;;5110869;28;20030;-68